Time;durP1;ratioP1;P1;durP2;ratioP2;P2;SDS_P1;SDS_P2;PMS_P1;PMS_P2;Temp;Humidity;BMP_temperature;BMP_pressure;BME280_temperature;BME280_humidity;BME280_pressure;Samples;Min_cycle;Max_cycle;Signal;HPM_P1;HPM_P2
2022/11/15 05:38:08;;;;;;;6.63;4.45;;;;;;;10.73;78.46;99047.88;6102090;23;20223;-89
2022/11/15 05:40:52;;;;;;;6.47;4.97;;;;;;;10.72;78.61;99040.97;6099836;23;20175;-89
2022/11/15 05:43:41;;;;;;;8.30;6.65;;;;;;;10.74;78.74;99043.47;6096536;23;20218;-89
2022/11/15 05:46:25;;;;;;;10.57;7.93;;;;;;;10.74;78.67;99044.31;6099267;23;21032;-89
2022/11/15 05:49:14;;;;;;;8.55;7.03;;;;;;;10.76;78.53;99039.78;6096116;23;20186;-88
2022/11/15 05:52:06;;;;;;;12.73;8.68;;;;;;;10.77;78.56;99044.06;6121749;23;20180;-88
2022/11/15 05:54:50;;;;;;;9.38;7.90;;;;;;;10.78;78.63;99037.88;6089860;23;20206;-89
2022/11/15 05:57:36;;;;;;;6.38;4.63;;;;;;;10.77;78.60;99030.94;6129147;23;20167;-89
2022/11/15 06:00:20;;;;;;;8.45;4.55;;;;;;;10.76;78.64;99026.66;6122023;23;20519;-89
2022/11/15 06:03:04;;;;;;;4.03;3.60;;;;;;;10.78;78.59;99037.06;6104541;23;20219;-88
2022/11/15 06:05:48;;;;;;;5.28;3.90;;;;;;;10.81;78.56;99039.44;6127010;23;20192;-88
2022/11/15 06:08:49;;;;;;;5.10;3.55;;;;;;;10.85;78.42;99039.13;6131607;23;20773;-90
2022/11/15 06:11:34;;;;;;;4.28;3.25;;;;;;;10.89;78.33;99036.25;6128753;23;20175;-89
2022/11/15 06:14:21;;;;;;;5.43;3.97;;;;;;;10.92;78.24;99041.28;6113690;23;20178;-89
2022/11/15 06:17:08;;;;;;;4.47;3.40;;;;;;;10.93;78.18;99027.19;6128327;23;20178;-88
2022/11/15 06:19:55;;;;;;;4.85;3.50;;;;;;;10.94;78.27;99031.50;6139571;23;20190;-89
2022/11/15 06:22:59;;;;;;;4.78;3.72;;;;;;;10.92;78.37;99034.22;6134260;23;20219;-90
2022/11/15 06:25:44;;;;;;;13.00;5.43;;;;;;;10.89;78.42;99031.00;6089383;23;20210;-90
2022/11/15 06:28:35;;;;;;;6.43;4.60;;;;;;;10.83;78.23;99034.94;6107282;23;20195;-89
2022/11/15 06:31:34;;;;;;;;;;;;;;;;;;;;;
2022/11/15 06:34:19;;;;;;;6.65;4.72;;;;;;;10.71;78.67;99035.81;6072935;23;20248;-88
2022/11/15 06:37:03;;;;;;;4.32;3.92;;;;;;;10.68;78.85;99039.50;6090304;23;20580;-89
2022/11/15 06:39:47;;;;;;;5.35;3.83;;;;;;;10.68;78.73;99039.50;6090783;23;20270;-89
2022/11/15 06:42:40;;;;;;;4.43;4.03;;;;;;;10.69;78.84;99040.34;6048916;23;20231;-88
2022/11/15 06:45:25;;;;;;;5.07;3.83;;;;;;;10.66;79.03;99038.78;6063911;23;20553;-90
2022/11/15 06:48:09;;;;;;;5.00;4.50;;;;;;;10.67;78.86;99042.25;6070056;23;20176;-88
2022/11/15 06:50:55;;;;;;;4.07;3.25;;;;;;;10.67;79.08;99039.63;6063632;23;20196;-88
2022/11/15 06:53:40;;;;;;;6.95;5.43;;;;;;;10.67;79.01;99037.84;6067347;23;20192;-89
2022/11/15 06:56:30;;;;;;;5.68;4.68;;;;;;;10.67;79.07;99042.25;6056166;23;20161;-88
2022/11/15 06:59:17;;;;;;;6.47;4.55;;;;;;;10.66;79.29;99038.78;6055746;23;20418;-89
2022/11/15 07:02:02;;;;;;;4.97;3.80;;;;;;;10.65;78.99;99042.34;6045892;23;20191;-88
2022/11/15 07:04:49;;;;;;;5.47;4.28;;;;;;;10.66;79.00;99033.50;6057560;23;20583;-89
2022/11/15 07:07:33;;;;;;;4.40;3.97;;;;;;;10.67;79.07;99037.00;6067642;23;20245;-89
2022/11/15 07:10:24;;;;;;;4.93;4.28;;;;;;;10.67;79.12;99027.34;6073617;23;20204;-88
2022/11/15 07:13:12;;;;;;;4.07;3.67;;;;;;;10.71;79.05;99028.78;6062864;23;20176;-89
2022/11/15 07:16:07;;;;;;;5.30;4.35;;;;;;;10.73;79.18;99031.28;6067224;23;20200;-89
2022/11/15 07:22:30;;;;;;;6.10;4.60;;;;;;;10.75;79.15;99030.22;6051340;23;20621;-91
2022/11/15 07:25:26;;;;;;;6.80;4.40;;;;;;;10.78;79.09;99035.25;6074320;23;20240;-89
2022/11/15 07:28:14;;;;;;;7.80;4.85;;;;;;;10.81;79.10;99031.56;6076429;23;20184;-88
2022/11/15 07:31:05;;;;;;;4.88;4.35;;;;;;;10.83;79.10;99034.94;6074991;23;20179;-89
2022/11/15 07:38:11;;;;;;;6.43;5.00;;;;;;;10.89;79.40;99025.75;6068926;23;20188;-89
2022/11/15 07:41:08;;;;;;;5.72;5.18;;;;;;;10.94;79.37;99024.47;6067269;23;20731;-91
2022/11/15 07:43:55;;;;;;;6.10;4.90;;;;;;;11.01;79.03;99024.81;6063139;23;20181;-89
2022/11/15 07:46:54;;;;;;;9.70;7.93;;;;;;;11.07;79.07;99021.72;6057384;23;20232;-88
2022/11/15 07:49:45;;;;;;;11.65;8.32;;;;;;;11.11;79.01;99023.19;6067815;23;20176;-89
2022/11/15 07:52:57;;;;;;;18.65;10.30;;;;;;;11.15;78.89;99019.38;6055997;23;20179;-91
2022/11/15 07:59:19;;;;;;;13.20;10.05;;;;;;;11.25;78.77;99022.13;6023675;23;20241;-90
2022/11/15 08:02:04;;;;;;;18.95;10.32;;;;;;;11.30;78.49;99022.63;6066777;23;20240;-89
2022/11/15 08:04:50;;;;;;;15.10;10.82;;;;;;;11.38;78.83;99015.00;6068511;23;21130;-88
2022/11/15 08:07:42;;;;;;;12.13;7.75;;;;;;;11.44;78.82;99011.06;6043803;23;20192;-89
2022/11/15 08:10:28;;;;;;;10.27;7.10;;;;;;;11.52;78.63;99011.31;6042084;23;20177;-89
2022/11/15 08:13:13;;;;;;;8.55;6.13;;;;;;;11.57;78.60;99011.78;6036129;23;20251;-88
2022/11/15 08:16:07;;;;;;;11.10;7.22;;;;;;;11.65;78.36;99013.84;6041317;23;20212;-88
2022/11/15 08:18:51;;;;;;;12.88;7.75;;;;;;;11.71;78.15;99013.34;6038016;23;20207;-90
2022/11/15 08:21:35;;;;;;;12.43;10.20;;;;;;;11.77;78.04;99001.50;6041423;23;20875;-89
2022/11/15 08:24:25;;;;;;;16.60;12.75;;;;;;;11.83;77.73;99007.16;6037837;23;20227;-89
2022/11/15 08:27:14;;;;;;;16.02;10.80;;;;;;;11.90;77.73;99010.16;6040059;23;20180;-90
2022/11/15 08:30:01;;;;;;;18.88;12.43;;;;;;;11.95;77.53;99005.38;6040191;23;20224;-90
2022/11/15 08:32:45;;;;;;;15.00;9.82;;;;;;;11.99;77.27;99006.81;6039990;23;20541;-90
2022/11/15 08:35:32;;;;;;;13.27;8.52;;;;;;;12.03;77.33;99010.84;6040621;23;20176;-92
2022/11/15 08:38:16;;;;;;;15.05;11.30;;;;;;;12.06;77.29;99007.97;6041362;23;20262;-90
2022/11/15 08:41:10;;;;;;;13.15;10.55;;;;;;;12.07;77.10;99009.66;6040507;23;20192;-90
2022/11/15 08:43:56;;;;;;;17.20;11.50;;;;;;;12.09;77.06;99002.47;6038641;23;20351;-90
2022/11/15 08:46:43;;;;;;;18.73;13.10;;;;;;;12.11;77.23;98999.72;6037529;23;20518;-90
2022/11/15 08:49:30;;;;;;;18.00;13.00;;;;;;;12.14;77.22;99002.09;6041316;23;20283;-89
2022/11/15 08:52:14;;;;;;;21.27;12.35;;;;;;;12.20;77.25;99008.69;6019533;23;20204;-89
2022/11/15 08:55:01;;;;;;;17.00;11.73;;;;;;;12.22;77.13;99007.59;6039948;23;21035;-89
2022/11/15 08:57:45;;;;;;;15.50;11.77;;;;;;;12.24;77.12;99008.31;6042389;23;20244;-89
2022/11/15 09:00:29;;;;;;;16.90;13.82;;;;;;;12.25;77.16;99006.50;6039104;23;20661;-90
2022/11/15 09:03:15;;;;;;;25.95;18.35;;;;;;;12.24;77.22;99010.94;6040254;23;20451;-89
2022/11/15 09:06:01;;;;;;;49.13;28.02;;;;;;;12.23;77.41;99005.78;6039381;23;20506;-90
2022/11/15 09:08:45;;;;;;;26.65;16.48;;;;;;;12.22;77.41;99004.97;6040310;23;20203;-90
2022/11/15 09:11:31;;;;;;;18.27;12.52;;;;;;;12.21;77.57;99013.84;6040149;23;20176;-90
2022/11/15 09:14:15;;;;;;;15.75;10.20;;;;;;;12.20;77.65;99021.84;6017127;23;20196;-89
2022/11/15 09:17:00;;;;;;;9.60;6.78;;;;;;;12.20;77.64;99017.41;6041414;23;20172;-90
2022/11/15 09:19:44;;;;;;;10.13;6.72;;;;;;;12.21;77.67;99015.63;6038363;23;20255;-89
2022/11/15 09:22:28;;;;;;;6.38;5.72;;;;;;;12.21;77.79;99016.47;6037393;23;20447;-90
2022/11/15 09:25:12;;;;;;;6.93;5.05;;;;;;;12.24;77.54;99016.22;6040627;23;20310;-88
2022/11/15 09:27:56;;;;;;;11.95;6.18;;;;;;;12.27;77.27;98999.34;6042285;23;20200;-89
2022/11/15 09:30:41;;;;;;;8.30;7.50;;;;;;;12.28;77.34;98985.19;6043004;23;20262;-89
2022/11/15 09:33:25;;;;;;;11.13;6.28;;;;;;;12.30;77.40;98988.56;6040478;23;20192;-90
2022/11/15 09:36:10;;;;;;;8.00;6.50;;;;;;;12.34;77.19;98989.97;6042000;23;20209;-91
2022/11/15 09:38:54;;;;;;;7.15;6.35;;;;;;;12.38;77.28;98994.03;6045085;23;20224;-89
2022/11/15 09:42:10;;;;;;;12.48;6.47;;;;;;;12.43;77.17;98999.78;6042044;23;20228;-90
2022/11/15 09:45:12;;;;;;;11.95;9.18;;;;;;;12.49;76.93;98994.00;6033610;23;20258;-90
2022/11/15 09:48:33;;;;;;;8.38;7.20;;;;;;;12.54;76.88;98997.09;6045386;23;20204;-91
2022/11/15 09:51:28;;;;;;;12.25;10.35;;;;;;;12.61;76.63;98994.81;6040739;23;20442;-90
2022/11/15 09:54:25;;;;;;;16.58;11.15;;;;;;;12.66;76.29;98983.88;5967201;23;20217;-90
2022/11/15 09:56:52;;;;;;;9.77;7.43;;;;;;;12.68;76.26;98993.31;6058939;23;20187;-89
2022/11/15 09:59:53;;;;;;;8.27;6.78;;;;;;;12.70;76.18;98986.13;5910554;23;20306;-89
2022/11/15 10:02:48;;;;;;;10.57;5.72;;;;;;;12.72;76.15;98980.72;5957979;24;20164;-89
2022/11/15 10:05:27;;;;;;;5.43;4.88;;;;;;;12.72;76.28;98971.03;5957819;24;20173;-88
2022/11/15 10:07:52;;;;;;;6.05;5.47;;;;;;;12.76;76.20;98971.63;5955436;24;20191;-89
2022/11/15 10:10:38;;;;;;;6.90;4.70;;;;;;;12.78;76.15;98959.16;5957527;24;20167;-90
2022/11/15 10:13:04;;;;;;;7.20;5.60;;;;;;;12.84;76.19;98953.38;5955497;24;20197;-90
2022/11/15 10:15:30;;;;;;;5.63;4.88;;;;;;;12.91;75.98;98946.63;5932219;24;20548;-89
2022/11/15 10:18:15;;;;;;;6.47;3.88;;;;;;;13.01;75.53;98947.50;6035104;23;20276;-90
2022/11/15 10:20:57;;;;;;;7.00;4.93;;;;;;;13.11;75.35;98952.03;6041570;23;20193;-89
2022/11/15 10:23:23;;;;;;;7.35;5.32;;;;;;;13.19;75.25;98944.28;6043412;23;20598;-88
2022/11/15 10:25:55;;;;;;;5.70;5.00;;;;;;;13.26;75.08;98940.22;6038165;23;20256;-88
2022/11/15 10:28:32;;;;;;;10.07;5.90;;;;;;;13.33;74.93;98930.78;6041438;23;20172;-89
2022/11/15 10:31:01;;;;;;;9.13;5.75;;;;;;;13.36;74.96;98921.78;6043007;23;20275;-89
2022/11/15 10:33:48;;;;;;;8.75;6.32;;;;;;;13.38;75.18;98923.31;6016843;23;20288;-89
2022/11/15 10:36:21;;;;;;;10.48;7.05;;;;;;;13.41;75.17;98911.66;6041886;23;20169;-89
2022/11/15 10:38:52;;;;;;;7.75;6.38;;;;;;;13.43;75.06;98900.00;6042357;23;20684;-88
2022/11/15 10:41:29;;;;;;;9.80;7.10;;;;;;;13.46;75.21;98905.03;6046512;23;20663;-88
2022/11/15 10:44:07;;;;;;;8.95;6.35;;;;;;;13.49;75.15;98901.28;6041054;23;20427;-89
2022/11/15 10:46:40;;;;;;;7.97;6.18;;;;;;;13.52;74.94;98902.81;6041584;23;20176;-90
2022/11/15 10:49:29;;;;;;;6.78;6.13;;;;;;;13.55;75.10;98898.09;6040610;23;20859;-90
2022/11/15 10:52:20;;;;;;;8.05;6.15;;;;;;;13.61;75.12;98896.72;6036211;23;20184;-88
2022/11/15 10:55:05;;;;;;;;;;;;;;;;;;;;;
2022/11/15 10:57:39;;;;;;;8.63;6.13;;;;;;;13.71;74.83;98879.13;6037804;23;20290;-89
2022/11/15 11:00:39;;;;;;;10.50;7.38;;;;;;;13.80;74.72;98880.09;6041062;23;20608;-88
2022/11/15 11:03:27;;;;;;;5.85;4.97;;;;;;;13.86;74.70;98877.78;6041990;23;20149;-88
2022/11/15 11:06:18;;;;;;;6.32;5.60;;;;;;;13.91;74.45;98878.19;6042026;23;20183;-89
2022/11/15 11:09:03;;;;;;;8.80;6.90;;;;;;;13.92;74.15;98868.47;6016702;23;20169;-91
2022/11/15 11:11:49;;;;;;;7.90;7.15;;;;;;;13.90;74.59;98863.31;6038164;23;20187;-89
2022/11/15 11:14:26;;;;;;;7.05;6.28;;;;;;;13.90;74.48;98855.41;6043886;23;20158;-89
2022/11/15 11:17:23;;;;;;;8.25;6.20;;;;;;;13.91;74.61;98848.34;6038252;23;20224;-90
2022/11/15 11:20:22;;;;;;;6.75;5.38;;;;;;;13.92;74.58;98848.19;6035393;23;20666;-90
2022/11/15 11:23:12;;;;;;;8.30;5.63;;;;;;;13.94;74.61;98846.25;6015061;23;20195;-91
2022/11/15 11:26:13;;;;;;;6.93;5.40;;;;;;;13.93;74.52;98835.81;6038982;23;20643;-90
2022/11/15 11:29:00;;;;;;;6.32;5.72;;;;;;;13.94;74.50;98829.56;6040040;23;20170;-89
2022/11/15 11:31:38;;;;;;;8.05;5.53;;;;;;;13.97;74.91;98829.28;6040662;23;20574;-88
2022/11/15 11:34:51;;;;;;;8.38;5.75;;;;;;;14.00;74.69;98830.81;6011709;23;20246;-90
2022/11/15 11:37:28;;;;;;;9.75;6.03;;;;;;;14.02;74.58;98811.22;5895292;24;20186;-90
2022/11/15 11:40:00;;;;;;;8.70;6.00;;;;;;;14.04;74.21;98804.00;5896014;24;20204;-90
2022/11/15 11:42:45;;;;;;;6.15;5.55;;;;;;;14.09;74.40;98803.56;5976633;23;20821;-89
2022/11/15 11:45:21;;;;;;;5.80;4.93;;;;;;;14.14;74.15;98804.00;6039027;23;20187;-90
2022/11/15 11:47:56;;;;;;;7.13;6.43;;;;;;;14.18;74.18;98800.09;6037571;23;20303;-90
2022/11/15 11:50:27;;;;;;;13.32;10.73;;;;;;;14.21;73.92;98791.91;6039097;23;20178;-89
2022/11/15 11:52:53;;;;;;;8.90;7.72;;;;;;;14.28;73.59;98789.50;6040042;23;20603;-90
2022/11/15 11:55:28;;;;;;;8.20;5.60;;;;;;;14.30;73.71;98780.47;6037531;23;20431;-89
2022/11/15 11:58:05;;;;;;;5.68;5.05;;;;;;;14.34;73.80;98768.66;6042087;23;20172;-89
2022/11/15 12:00:37;;;;;;;7.05;6.35;;;;;;;14.41;73.82;98773.38;6042988;23;20169;-89
2022/11/15 12:03:09;;;;;;;6.90;3.60;;;;;;;14.46;73.65;98771.13;6045944;23;20156;-89
2022/11/15 12:05:42;;;;;;;5.15;4.65;;;;;;;14.52;73.53;98774.06;6043089;23;20145;-89
2022/11/15 12:08:38;;;;;;;6.38;4.88;;;;;;;14.56;73.22;98761.41;6039761;23;20153;-89
2022/11/15 12:11:31;;;;;;;7.75;5.00;;;;;;;14.53;73.50;98745.84;6040381;23;20164;-89
2022/11/15 12:14:14;;;;;;;5.78;5.03;;;;;;;14.53;73.65;98751.13;6040934;23;20141;-89
2022/11/15 12:16:42;;;;;;;6.93;5.65;;;;;;;14.54;73.66;98743.03;6014551;23;20161;-88
2022/11/15 12:19:08;;;;;;;7.28;6.45;;;;;;;14.57;73.76;98731.34;6039822;23;20193;-90
2022/11/15 12:21:55;;;;;;;6.00;4.97;;;;;;;14.58;73.61;98730.38;6039958;23;20543;-89
2022/11/15 12:24:32;;;;;;;6.20;5.60;;;;;;;14.58;73.70;98725.94;6014353;23;20432;-90
2022/11/15 12:27:18;;;;;;;6.30;5.70;;;;;;;14.58;73.59;98720.66;6042921;23;20157;-89
2022/11/15 12:30:12;;;;;;;6.13;5.53;;;;;;;14.59;73.49;98711.75;6040679;23;20449;-89
2022/11/15 12:32:39;;;;;;;6.93;5.53;;;;;;;14.59;73.42;98702.97;6039759;23;20157;-90
2022/11/15 12:35:22;;;;;;;6.57;5.72;;;;;;;14.60;73.65;98702.00;6036970;23;20194;-90
2022/11/15 12:37:50;;;;;;;10.40;7.90;;;;;;;14.58;73.89;98702.16;6039634;23;20161;-89
2022/11/15 12:40:23;;;;;;;11.93;10.27;;;;;;;14.58;73.83;98698.66;6038526;23;20192;-89
2022/11/15 12:43:04;;;;;;;14.95;13.35;;;;;;;14.54;74.15;98706.06;6022506;23;20205;-90
2022/11/15 12:45:43;;;;;;;17.02;14.52;;;;;;;14.52;74.28;98707.13;6039177;23;20164;-90
2022/11/15 12:48:25;;;;;;;18.50;13.55;;;;;;;14.48;74.49;98693.41;6036897;23;20161;-89
2022/11/15 12:50:54;;;;;;;10.00;9.00;;;;;;;14.45;74.64;98691.03;6042736;23;20149;-90
2022/11/15 12:53:36;;;;;;;9.75;6.60;;;;;;;14.38;74.75;98696.06;6042080;23;20645;-90
2022/11/15 12:56:17;;;;;;;9.18;7.15;;;;;;;14.29;74.90;98686.38;6045548;23;20966;-89
2022/11/15 12:58:59;;;;;;;14.00;11.23;;;;;;;14.25;75.41;98679.69;6042738;23;20164;-89
2022/11/15 13:01:34;;;;;;;11.75;10.00;;;;;;;14.22;75.20;98673.88;6044101;23;20200;-89
2022/11/15 13:04:26;;;;;;;13.70;10.38;;;;;;;14.23;75.38;98670.25;6041502;23;20184;-89
2022/11/15 13:06:56;;;;;;;15.48;12.85;;;;;;;14.22;75.17;98664.13;6042572;23;20587;-89
2022/11/15 13:09:30;;;;;;;12.93;10.45;;;;;;;14.21;75.08;98667.75;6059264;23;20165;-89
2022/11/15 13:12:18;;;;;;;10.43;9.25;;;;;;;14.19;75.30;98661.78;6054667;23;20585;-88
2022/11/15 13:15:20;;;;;;;14.77;11.30;;;;;;;14.18;75.34;98654.84;6059011;23;21017;-88
2022/11/15 13:17:56;;;;;;;11.30;10.10;;;;;;;14.17;75.36;98654.00;6051925;23;20585;-88
2022/11/15 13:20:44;;;;;;;9.43;8.63;;;;;;;14.18;75.14;98646.94;6041630;23;20181;-89
2022/11/15 13:23:14;;;;;;;12.35;9.30;;;;;;;14.17;75.21;98637.31;6040916;23;20182;-91
2022/11/15 13:25:52;;;;;;;11.35;9.52;;;;;;;14.17;75.25;98639.97;6013868;23;20506;-87
2022/11/15 13:28:20;;;;;;;12.70;9.55;;;;;;;14.15;75.36;98631.38;6037532;23;20771;-86
2022/11/15 13:30:46;;;;;;;11.15;8.60;;;;;;;14.14;75.48;98640.25;6037864;23;20165;-87
2022/11/15 13:33:17;;;;;;;8.43;7.70;;;;;;;14.13;75.44;98633.31;6036177;23;20217;-87
2022/11/15 13:35:50;;;;;;;9.32;8.32;;;;;;;14.12;75.37;98626.34;6038005;23;20622;-87
2022/11/15 13:38:25;;;;;;;10.30;9.15;;;;;;;14.11;75.42;98619.41;6012556;23;20225;-87
2022/11/15 13:40:54;;;;;;;9.18;8.27;;;;;;;14.10;75.53;98608.03;6013312;23;20220;-87
2022/11/15 13:43:30;;;;;;;9.27;8.15;;;;;;;14.05;75.60;98614.72;6012746;23;20437;-86
2022/11/15 13:46:07;;;;;;;11.52;8.57;;;;;;;14.02;75.76;98607.91;6038402;23;20700;-87
2022/11/15 13:48:33;;;;;;;10.70;8.73;;;;;;;13.98;75.91;98600.41;6038890;23;20157;-87
2022/11/15 13:51:08;;;;;;;9.00;8.10;;;;;;;13.93;75.98;98596.41;6037088;23;20169;-87
2022/11/15 13:53:42;;;;;;;14.13;10.50;;;;;;;13.91;76.23;98587.81;6037846;23;20171;-87
2022/11/15 13:56:10;;;;;;;13.95;9.30;;;;;;;13.90;76.30;98586.13;6011751;23;20154;-87
2022/11/15 13:58:39;;;;;;;9.90;8.65;;;;;;;13.90;76.32;98575.56;6038767;23;20161;-88
2022/11/15 14:01:06;;;;;;;10.77;9.07;;;;;;;13.88;76.28;98581.97;6037371;23;20455;-86
2022/11/15 14:03:46;;;;;;;12.70;9.98;;;;;;;13.87;76.62;98573.22;6036714;23;20546;-87
2022/11/15 14:06:20;;;;;;;12.30;10.05;;;;;;;13.86;76.59;98571.56;6039064;23;20434;-86
2022/11/15 14:09:09;;;;;;;11.75;9.05;;;;;;;13.88;76.51;98569.63;6039429;23;20166;-87
2022/11/15 14:11:34;;;;;;;13.20;11.20;;;;;;;13.87;76.44;98565.28;6040077;23;20157;-87
2022/11/15 14:14:11;;;;;;;10.30;8.20;;;;;;;13.88;76.37;98566.97;6037369;23;20209;-86
2022/11/15 14:17:05;;;;;;;11.27;10.02;;;;;;;13.88;76.40;98558.19;6037102;23;20167;-87
2022/11/15 14:19:40;;;;;;;9.32;8.40;;;;;;;13.89;76.41;98554.59;5970042;23;20720;-87
2022/11/15 14:22:33;;;;;;;11.25;9.88;;;;;;;13.89;76.47;98551.97;6046677;23;20317;-87
2022/11/15 14:26:15;;;;;;;8.93;7.95;;;;;;;13.86;76.39;98542.53;6049415;23;20483;-87
2022/11/15 14:29:19;;;;;;;10.52;7.03;;;;;;;13.85;76.55;98532.97;5904862;24;20173;-86
2022/11/15 14:31:52;;;;;;;8.30;7.50;;;;;;;13.85;76.14;98529.47;5904673;24;20190;-87
2022/11/15 14:34:22;;;;;;;8.02;6.38;;;;;;;13.85;76.38;98518.91;5879989;24;20800;-87
2022/11/15 14:36:47;;;;;;;7.78;7.07;;;;;;;13.86;76.07;98526.69;5893185;24;20169;-86
2022/11/15 14:39:13;;;;;;;12.80;8.17;;;;;;;13.90;76.17;98519.31;5950592;23;20208;-87
2022/11/15 14:41:38;;;;;;;7.57;6.77;;;;;;;13.91;76.14;98519.16;6039326;23;20422;-87
2022/11/15 14:44:05;;;;;;;8.60;6.80;;;;;;;13.93;76.02;98514.59;6038371;23;20169;-87
2022/11/15 14:46:31;;;;;;;8.80;7.68;;;;;;;13.95;75.97;98514.41;6037372;23;20212;-87
2022/11/15 14:48:56;;;;;;;13.73;8.57;;;;;;;13.94;75.83;98510.94;6038245;23;20421;-87
2022/11/15 14:51:22;;;;;;;8.90;7.50;;;;;;;13.94;75.82;98510.13;6039142;23;20164;-88
2022/11/15 14:53:50;;;;;;;8.90;7.40;;;;;;;13.92;75.69;98509.44;6038064;23;20679;-87
2022/11/15 14:56:16;;;;;;;11.27;9.65;;;;;;;13.89;75.92;98507.09;6037574;23;20185;-87
2022/11/15 14:58:44;;;;;;;16.73;11.50;;;;;;;13.85;75.89;98508.34;6038005;23;20232;-86
2022/11/15 15:41:07;;;;;;;;;;;;;;;;;;;;;
2022/11/15 15:43:32;;;;;;;7.18;5.70;;;;;;;13.81;76.21;98447.09;6062484;23;20168;-86
2022/11/15 15:46:01;;;;;;;6.00;5.40;;;;;;;13.76;76.45;98445.88;6068022;23;20651;-86
2022/11/15 15:48:26;;;;;;;8.13;5.97;;;;;;;13.69;76.38;98445.63;6069752;23;20473;-87
2022/11/15 15:50:54;;;;;;;7.50;5.67;;;;;;;13.64;76.50;98453.16;6068284;23;20159;-86
2022/11/15 15:53:22;;;;;;;5.95;5.35;;;;;;;13.57;76.62;98447.63;6043665;23;20557;-87
2022/11/15 15:55:48;;;;;;;7.30;5.15;;;;;;;13.50;76.76;98447.38;6065973;23;20197;-86
2022/11/15 15:58:18;;;;;;;7.70;5.10;;;;;;;13.43;77.01;98443.66;6068077;23;20180;-91
2022/11/15 16:00:49;;;;;;;8.57;4.32;;;;;;;13.41;76.82;98450.03;6065191;23;20183;-89
2022/11/15 16:03:27;;;;;;;7.07;5.80;;;;;;;13.41;76.98;98450.03;6066134;23;20233;-88
2022/11/15 16:05:53;;;;;;;5.82;5.22;;;;;;;13.44;76.95;98442.66;6042863;23;20294;-87
2022/11/15 16:08:27;;;;;;;6.97;5.40;;;;;;;13.43;76.62;98433.09;6068590;23;20165;-87
2022/11/15 16:10:55;;;;;;;6.47;5.85;;;;;;;13.37;76.60;98425.78;6067359;23;20169;-88
2022/11/15 16:13:23;;;;;;;6.47;5.88;;;;;;;13.36;76.57;98420.63;6067041;23;20197;-88
2022/11/15 16:16:00;;;;;;;6.53;5.45;;;;;;;13.36;76.45;98429.38;6067859;23;20179;-89
2022/11/15 16:18:35;;;;;;;6.43;5.75;;;;;;;13.39;76.63;98423.81;6068712;23;20161;-94
2022/11/15 16:21:22;;;;;;;6.57;5.85;;;;;;;13.51;76.50;98419.19;6063689;23;20168;-94
2022/11/15 22:49:48;;;;;;;13.88;10.85;;;;;;;11.84;80.54;98198.41;6081091;23;20217;-92
2022/11/15 22:52:58;;;;;;;;;;;;;;;;;;;;;
2022/11/15 22:55:57;;;;;;;12.95;10.88;;;;;;;11.83;80.58;98190.66;6094142;23;20533;-92
2022/11/15 22:58:25;;;;;;;12.55;11.27;;;;;;;11.86;80.73;98195.66;6095240;23;20235;-92
2022/11/15 23:01:45;;;;;;;;;;;;;;;;;;;;;
2022/11/15 23:09:54;;;;;;;;;;;;;;;;;;;;;
2022/11/15 23:17:38;;;;;;;;;;;;;;;;;;;;;
